This is the latest recevied weather packets stored in our database for station/object Winterlng. If no packets are shown the sender has not sent any weather packets the latest 10 day(s).
| Time | Temp. | Humidity | Pressure | Rain* | Wind** | Luminosity | Snow |
|---|---|---|---|---|---|---|---|
| 1777374130 | 16.67° C | 34% | 0 hPa | 0 mm | - | - | - |
| 1777372331 | 16.67° C | 33% | 0 hPa | 0 mm | - | - | - |
| 1777370531 | 16.67° C | 33% | 0 hPa | 0 mm | - | - | - |
| 1777368731 | 16.11° C | 35% | 0 hPa | 0 mm | - | - | - |
| 1777366931 | 15° C | 35% | 0 hPa | 0 mm | - | - | - |
| 1777365132 | 15° C | 37% | 0 hPa | 0 mm | - | - | - |
| 1777363331 | 15.56° C | 36% | 0 hPa | 0 mm | - | - | - |
| 1777361536 | 14.44° C | 41% | 0 hPa | 0 mm | - | - | - |
| 1777359732 | 12.78° C | 44% | 0 hPa | 0 mm | - | - | - |
| 1777357931 | 11.67° C | 45% | 0 hPa | 0 mm | - | - | - |
| 1777356133 | 10.56° C | 48% | 0 hPa | 0 mm | - | - | - |
| 1777354331 | 8.89° C | 52% | 0 hPa | 0 mm | - | - | - |
| 1777352531 | 7.22° C | 56% | 0 hPa | 0 mm | - | - | - |
| 1777350732 | 6.67° C | 62% | 0 hPa | 0 mm | - | - | - |
| 1777348932 | 6.67° C | 60% | 0 hPa | 0 mm | - | - | - |
| 1777347133 | 6.67° C | 60% | 0 hPa | 0 mm | - | - | - |
| 1777345331 | 6.67° C | 59% | 0 hPa | 0 mm | - | - | - |
| 1777343532 | 7.22° C | 58% | 0 hPa | 0 mm | - | - | - |
| 1777341732 | 7.22° C | 56% | 0 hPa | 0 mm | - | - | - |
| 1777339933 | 7.22° C | 55% | 0 hPa | 0 mm | - | - | - |
| 1777338131 | 7.78° C | 56% | 0 hPa | 0 mm | - | - | - |
| 1777336329 | 8.33° C | 53% | 0 hPa | 0 mm | - | - | - |
| 1777334529 | 8.33° C | 53% | 0 hPa | 0 mm | - | - | - |
| 1777332730 | 8.33° C | 54% | 0 hPa | 0 mm | - | - | - |
| 1777330929 | 9.44° C | 52% | 0 hPa | 0 mm | - | - | - |
* Rain since midnight (hover to see other rain measurements)
** Current wind speed in m/s (hover to see current wind gust speed)